sensor_id;sensor_type;location;lat;lon;timestamp;pressure;altitude;pressure_sealevel;temperature
79148;BMP280;68562;51.600;6.524;2023-05-16T00:00:00;1016.3;;;15.1
79148;BMP280;68562;51.600;6.524;2023-05-16T00:05:00;1016.3;;;15.0
79148;BMP280;68562;51.600;6.524;2023-05-16T00:10:00;1016.3;;;15.0
79148;BMP280;68562;51.600;6.524;2023-05-16T00:15:00;1016.3;;;15.0
79148;BMP280;68562;51.600;6.524;2023-05-16T00:20:00;1016.4;;;15.0
79148;BMP280;68562;51.600;6.524;2023-05-16T00:25:00;1016.4;;;14.9
79148;BMP280;68562;51.600;6.524;2023-05-16T00:30:00;1016.4;;;15.1
79148;BMP280;68562;51.600;6.524;2023-05-16T00:35:00;1016.4;;;15.1
79148;BMP280;68562;51.600;6.524;2023-05-16T00:40:00;1016.5;;;15.0
79148;BMP280;68562;51.600;6.524;2023-05-16T00:45:00;1016.5;;;14.9
79148;BMP280;68562;51.600;6.524;2023-05-16T00:50:00;1016.4;;;14.8
79148;BMP280;68562;51.600;6.524;2023-05-16T00:55:01;1016.5;;;14.7
79148;BMP280;68562;51.600;6.524;2023-05-16T01:00:00;1016.4;;;14.6
79148;BMP280;68562;51.600;6.524;2023-05-16T01:05:00;1016.5;;;14.5
79148;BMP280;68562;51.600;6.524;2023-05-16T01:10:00;1016.6;;;14.5
79148;BMP280;68562;51.600;6.524;2023-05-16T01:15:04;1016.6;;;14.5
79148;BMP280;68562;51.600;6.524;2023-05-16T01:20:04;1016.6;;;14.5
79148;BMP280;68562;51.600;6.524;2023-05-16T01:25:05;1016.6;;;14.5
79148;BMP280;68562;51.600;6.524;2023-05-16T01:30:00;1016.7;;;14.5
79148;BMP280;68562;51.600;6.524;2023-05-16T01:35:00;1016.7;;;14.5
79148;BMP280;68562;51.600;6.524;2023-05-16T01:40:03;1016.8;;;14.6
79148;BMP280;68562;51.600;6.524;2023-05-16T01:45:05;1016.7;;;14.6
79148;BMP280;68562;51.600;6.524;2023-05-16T01:50:07;1016.8;;;14.6
79148;BMP280;68562;51.600;6.524;2023-05-16T01:55:01;1016.9;;;14.7
79148;BMP280;68562;51.600;6.524;2023-05-16T02:00:00;1017.0;;;14.7
79148;BMP280;68562;51.600;6.524;2023-05-16T02:05:00;1017.0;;;14.7
79148;BMP280;68562;51.600;6.524;2023-05-16T02:10:00;1017.0;;;14.6
79148;BMP280;68562;51.600;6.524;2023-05-16T02:15:00;1017.0;;;14.6
79148;BMP280;68562;51.600;6.524;2023-05-16T02:20:00;1017.1;;;14.4
79148;BMP280;68562;51.600;6.524;2023-05-16T02:25:00;1017.2;;;14.3
79148;BMP280;68562;51.600;6.524;2023-05-16T02:30:00;1017.3;;;14.2
79148;BMP280;68562;51.600;6.524;2023-05-16T02:35:00;1017.3;;;14.2
79148;BMP280;68562;51.600;6.524;2023-05-16T02:40:00;1017.4;;;14.1
79148;BMP280;68562;51.600;6.524;2023-05-16T02:45:00;1017.4;;;14.0
79148;BMP280;68562;51.600;6.524;2023-05-16T02:50:00;1017.5;;;13.9
79148;BMP280;68562;51.600;6.524;2023-05-16T02:55:00;1017.6;;;13.9
79148;BMP280;68562;51.600;6.524;2023-05-16T03:00:00;1017.6;;;13.8
79148;BMP280;68562;51.600;6.524;2023-05-16T03:05:00;1017.6;;;13.8
79148;BMP280;68562;51.600;6.524;2023-05-16T03:10:00;1017.6;;;13.7
79148;BMP280;68562;51.600;6.524;2023-05-16T03:15:00;1017.7;;;13.6
79148;BMP280;68562;51.600;6.524;2023-05-16T03:20:00;1017.8;;;13.4
79148;BMP280;68562;51.600;6.524;2023-05-16T03:25:00;1017.8;;;13.2
79148;BMP280;68562;51.600;6.524;2023-05-16T03:30:00;1017.8;;;12.9
79148;BMP280;68562;51.600;6.524;2023-05-16T03:35:00;1017.8;;;12.7
79148;BMP280;68562;51.600;6.524;2023-05-16T03:40:00;1017.8;;;12.5
79148;BMP280;68562;51.600;6.524;2023-05-16T03:45:00;1017.8;;;12.4
79148;BMP280;68562;51.600;6.524;2023-05-16T03:50:00;1017.9;;;12.2
79148;BMP280;68562;51.600;6.524;2023-05-16T03:55:00;1017.9;;;12.1
79148;BMP280;68562;51.600;6.524;2023-05-16T04:00:00;1018.1;;;12.0
79148;BMP280;68562;51.600;6.524;2023-05-16T04:05:00;1018.1;;;12.0
79148;BMP280;68562;51.600;6.524;2023-05-16T04:10:00;1018.1;;;11.9
79148;BMP280;68562;51.600;6.524;2023-05-16T04:15:00;1018.2;;;11.9
79148;BMP280;68562;51.600;6.524;2023-05-16T04:20:00;1018.2;;;11.8
79148;BMP280;68562;51.600;6.524;2023-05-16T04:25:00;1018.2;;;11.8
79148;BMP280;68562;51.600;6.524;2023-05-16T04:30:00;1018.3;;;11.8
79148;BMP280;68562;51.600;6.524;2023-05-16T04:35:00;1018.3;;;11.8
79148;BMP280;68562;51.600;6.524;2023-05-16T04:40:00;1018.4;;;11.8
79148;BMP280;68562;51.600;6.524;2023-05-16T04:45:00;1018.4;;;11.8
79148;BMP280;68562;51.600;6.524;2023-05-16T04:50:00;1018.6;;;11.8
79148;BMP280;68562;51.600;6.524;2023-05-16T04:55:00;1018.6;;;11.9
79148;BMP280;68562;51.600;6.524;2023-05-16T05:00:00;1018.6;;;11.9
79148;BMP280;68562;51.600;6.524;2023-05-16T05:05:00;1018.6;;;12.0
79148;BMP280;68562;51.600;6.524;2023-05-16T05:10:00;1018.7;;;12.0
79148;BMP280;68562;51.600;6.524;2023-05-16T05:15:00;1018.7;;;12.1
79148;BMP280;68562;51.600;6.524;2023-05-16T05:20:00;1018.8;;;12.1
79148;BMP280;68562;51.600;6.524;2023-05-16T05:25:00;1018.8;;;12.1
79148;BMP280;68562;51.600;6.524;2023-05-16T05:30:00;1018.9;;;12.2
79148;BMP280;68562;51.600;6.524;2023-05-16T05:35:00;1018.9;;;12.3
79148;BMP280;68562;51.600;6.524;2023-05-16T05:40:00;1018.9;;;12.4
79148;BMP280;68562;51.600;6.524;2023-05-16T05:45:00;1019.0;;;12.5
79148;BMP280;68562;51.600;6.524;2023-05-16T05:50:02;1018.9;;;12.6
79148;BMP280;68562;51.600;6.524;2023-05-16T05:55:00;1019.0;;;12.6
79148;BMP280;68562;51.600;6.524;2023-05-16T06:00:00;1019.0;;;12.8
79148;BMP280;68562;51.600;6.524;2023-05-16T06:05:00;1019.0;;;12.9
79148;BMP280;68562;51.600;6.524;2023-05-16T06:10:00;1019.1;;;13.1
79148;BMP280;68562;51.600;6.524;2023-05-16T06:15:00;1019.2;;;13.3
79148;BMP280;68562;51.600;6.524;2023-05-16T06:20:00;1019.2;;;13.6
79148;BMP280;68562;51.600;6.524;2023-05-16T06:25:00;1019.3;;;13.9
79148;BMP280;68562;51.600;6.524;2023-05-16T06:30:00;1019.4;;;14.3
79148;BMP280;68562;51.600;6.524;2023-05-16T06:35:00;1019.4;;;14.5
79148;BMP280;68562;51.600;6.524;2023-05-16T06:40:00;1019.4;;;14.7
79148;BMP280;68562;51.600;6.524;2023-05-16T06:45:00;1019.4;;;14.9
79148;BMP280;68562;51.600;6.524;2023-05-16T06:50:00;1019.4;;;15.2
79148;BMP280;68562;51.600;6.524;2023-05-16T06:55:00;1019.5;;;15.4
79148;BMP280;68562;51.600;6.524;2023-05-16T07:00:00;1019.4;;;15.7
79148;BMP280;68562;51.600;6.524;2023-05-16T07:05:00;1019.4;;;16.0
79148;BMP280;68562;51.600;6.524;2023-05-16T07:10:00;1019.4;;;16.4
79148;BMP280;68562;51.600;6.524;2023-05-16T07:15:00;1019.4;;;16.7
79148;BMP280;68562;51.600;6.524;2023-05-16T07:20:00;1019.5;;;17.1
79148;BMP280;68562;51.600;6.524;2023-05-16T07:25:00;1019.5;;;17.4
79148;BMP280;68562;51.600;6.524;2023-05-16T07:30:00;1019.5;;;17.6
79148;BMP280;68562;51.600;6.524;2023-05-16T07:35:00;1019.5;;;17.9
79148;BMP280;68562;51.600;6.524;2023-05-16T07:40:00;1019.5;;;18.2
79148;BMP280;68562;51.600;6.524;2023-05-16T07:45:00;1019.5;;;18.5
79148;BMP280;68562;51.600;6.524;2023-05-16T07:50:00;1019.6;;;18.9
79148;BMP280;68562;51.600;6.524;2023-05-16T07:55:00;1019.5;;;19.3
79148;BMP280;68562;51.600;6.524;2023-05-16T08:00:00;1019.6;;;19.6
79148;BMP280;68562;51.600;6.524;2023-05-16T08:05:00;1019.6;;;19.8
79148;BMP280;68562;51.600;6.524;2023-05-16T08:10:00;1019.6;;;19.6
79148;BMP280;68562;51.600;6.524;2023-05-16T08:15:00;1019.6;;;19.6
79148;BMP280;68562;51.600;6.524;2023-05-16T08:20:00;1019.6;;;19.6
79148;BMP280;68562;51.600;6.524;2023-05-16T08:25:00;1019.6;;;20.0
79148;BMP280;68562;51.600;6.524;2023-05-16T08:30:00;1019.6;;;20.6
79148;BMP280;68562;51.600;6.524;2023-05-16T08:35:00;1019.5;;;21.0
79148;BMP280;68562;51.600;6.524;2023-05-16T08:40:00;1019.6;;;21.4
79148;BMP280;68562;51.600;6.524;2023-05-16T08:45:00;1019.5;;;21.9
79148;BMP280;68562;51.600;6.524;2023-05-16T08:50:02;1019.5;;;22.2
79148;BMP280;68562;51.600;6.524;2023-05-16T08:55:02;1019.6;;;22.1
79148;BMP280;68562;51.600;6.524;2023-05-16T09:00:00;1019.6;;;21.6
79148;BMP280;68562;51.600;6.524;2023-05-16T09:05:00;1019.7;;;21.2
79148;BMP280;68562;51.600;6.524;2023-05-16T09:10:00;1019.7;;;21.0
79148;BMP280;68562;51.600;6.524;2023-05-16T09:15:01;1019.7;;;21.2
79148;BMP280;68562;51.600;6.524;2023-05-16T09:20:07;1019.7;;;21.2
79148;BMP280;68562;51.600;6.524;2023-05-16T09:25:00;1019.8;;;21.1
79148;BMP280;68562;51.600;6.524;2023-05-16T09:30:01;1019.7;;;20.9
79148;BMP280;68562;51.600;6.524;2023-05-16T09:35:00;1019.6;;;20.8
79148;BMP280;68562;51.600;6.524;2023-05-16T09:40:01;1019.6;;;20.9
79148;BMP280;68562;51.600;6.524;2023-05-16T09:45:00;1019.6;;;20.9
79148;BMP280;68562;51.600;6.524;2023-05-16T09:50:00;1019.6;;;20.8
79148;BMP280;68562;51.600;6.524;2023-05-16T09:55:01;1019.7;;;20.6
79148;BMP280;68562;51.600;6.524;2023-05-16T10:00:00;1019.6;;;20.5
79148;BMP280;68562;51.600;6.524;2023-05-16T10:05:00;1019.5;;;21.0
79148;BMP280;68562;51.600;6.524;2023-05-16T10:10:04;1019.5;;;22.0
79148;BMP280;68562;51.600;6.524;2023-05-16T10:15:01;1019.5;;;23.2
79148;BMP280;68562;51.600;6.524;2023-05-16T10:20:01;1019.6;;;23.7
79148;BMP280;68562;51.600;6.524;2023-05-16T10:25:08;1019.6;;;24.3
79148;BMP280;68562;51.600;6.524;2023-05-16T10:30:00;1019.5;;;25.2
79148;BMP280;68562;51.600;6.524;2023-05-16T10:35:00;1019.5;;;25.9
79148;BMP280;68562;51.600;6.524;2023-05-16T10:40:01;1019.5;;;26.4
79148;BMP280;68562;51.600;6.524;2023-05-16T10:45:08;1019.4;;;27.0
79148;BMP280;68562;51.600;6.524;2023-05-16T10:50:00;1019.5;;;27.1
79148;BMP280;68562;51.600;6.524;2023-05-16T10:55:02;1019.4;;;26.2
79148;BMP280;68562;51.600;6.524;2023-05-16T11:00:00;1019.6;;;24.8
79148;BMP280;68562;51.600;6.524;2023-05-16T11:05:01;1019.6;;;23.4
79148;BMP280;68562;51.600;6.524;2023-05-16T11:10:04;1019.6;;;22.3
79148;BMP280;68562;51.600;6.524;2023-05-16T11:15:00;1019.6;;;21.7
79148;BMP280;68562;51.600;6.524;2023-05-16T11:20:00;1019.6;;;21.8
79148;BMP280;68562;51.600;6.524;2023-05-16T11:25:01;1019.6;;;22.9
79148;BMP280;68562;51.600;6.524;2023-05-16T11:30:10;1019.6;;;24.4
79148;BMP280;68562;51.600;6.524;2023-05-16T11:35:01;1019.5;;;25.3
79148;BMP280;68562;51.600;6.524;2023-05-16T11:40:01;1019.6;;;25.6
79148;BMP280;68562;51.600;6.524;2023-05-16T11:45:08;1019.6;;;25.6
79148;BMP280;68562;51.600;6.524;2023-05-16T11:50:02;1019.6;;;25.8
79148;BMP280;68562;51.600;6.524;2023-05-16T11:55:00;1019.6;;;26.1
79148;BMP280;68562;51.600;6.524;2023-05-16T12:00:01;1019.6;;;26.6
79148;BMP280;68562;51.600;6.524;2023-05-16T12:05:06;1019.5;;;27.5
79148;BMP280;68562;51.600;6.524;2023-05-16T12:10:04;1019.5;;;28.4
79148;BMP280;68562;51.600;6.524;2023-05-16T12:15:00;1019.6;;;29.0
79148;BMP280;68562;51.600;6.524;2023-05-16T12:20:01;1019.5;;;29.6
79148;BMP280;68562;51.600;6.524;2023-05-16T12:25:19;1019.4;;;30.2
79148;BMP280;68562;51.600;6.524;2023-05-16T12:30:00;1019.4;;;30.5
79148;BMP280;68562;51.600;6.524;2023-05-16T12:35:00;1019.4;;;30.7
79148;BMP280;68562;51.600;6.524;2023-05-16T12:40:00;1019.3;;;30.8
79148;BMP280;68562;51.600;6.524;2023-05-16T12:45:00;1019.3;;;30.3
79148;BMP280;68562;51.600;6.524;2023-05-16T12:50:00;1019.3;;;29.8
79148;BMP280;68562;51.600;6.524;2023-05-16T12:55:00;1019.4;;;28.9
79148;BMP280;68562;51.600;6.524;2023-05-16T13:00:00;1019.4;;;27.8
79148;BMP280;68562;51.600;6.524;2023-05-16T13:05:00;1019.4;;;27.4
79148;BMP280;68562;51.600;6.524;2023-05-16T13:10:00;1019.5;;;27.5
79148;BMP280;68562;51.600;6.524;2023-05-16T13:15:00;1019.5;;;27.2
79148;BMP280;68562;51.600;6.524;2023-05-16T13:20:00;1019.6;;;26.8
79148;BMP280;68562;51.600;6.524;2023-05-16T13:25:00;1019.6;;;26.7
79148;BMP280;68562;51.600;6.524;2023-05-16T13:30:00;1019.6;;;26.6
79148;BMP280;68562;51.600;6.524;2023-05-16T13:35:00;1019.6;;;26.6
79148;BMP280;68562;51.600;6.524;2023-05-16T13:40:00;1019.6;;;27.0
79148;BMP280;68562;51.600;6.524;2023-05-16T13:45:00;1019.7;;;27.3
79148;BMP280;68562;51.600;6.524;2023-05-16T13:50:00;1019.7;;;27.4
79148;BMP280;68562;51.600;6.524;2023-05-16T13:55:00;1019.8;;;27.1
79148;BMP280;68562;51.600;6.524;2023-05-16T14:00:00;1019.8;;;26.4
79148;BMP280;68562;51.600;6.524;2023-05-16T14:05:00;1019.8;;;25.7
79148;BMP280;68562;51.600;6.524;2023-05-16T14:10:00;1019.8;;;25.1
79148;BMP280;68562;51.600;6.524;2023-05-16T14:15:00;1019.9;;;24.6
79148;BMP280;68562;51.600;6.524;2023-05-16T14:20:00;1020.0;;;24.1
79148;BMP280;68562;51.600;6.524;2023-05-16T14:25:00;1020.0;;;23.5
79148;BMP280;68562;51.600;6.524;2023-05-16T14:30:00;1020.1;;;22.9
79148;BMP280;68562;51.600;6.524;2023-05-16T14:35:00;1020.1;;;22.4
79148;BMP280;68562;51.600;6.524;2023-05-16T14:40:00;1020.2;;;21.9
79148;BMP280;68562;51.600;6.524;2023-05-16T14:45:00;1020.2;;;21.5
79148;BMP280;68562;51.600;6.524;2023-05-16T14:50:00;1020.3;;;21.2
79148;BMP280;68562;51.600;6.524;2023-05-16T14:55:00;1020.3;;;21.0
79148;BMP280;68562;51.600;6.524;2023-05-16T15:00:00;1020.4;;;20.7
79148;BMP280;68562;51.600;6.524;2023-05-16T15:05:00;1020.4;;;20.4
79148;BMP280;68562;51.600;6.524;2023-05-16T15:10:00;1020.4;;;20.0
79148;BMP280;68562;51.600;6.524;2023-05-16T15:15:00;1020.6;;;19.8
79148;BMP280;68562;51.600;6.524;2023-05-16T15:20:00;1020.6;;;19.5
79148;BMP280;68562;51.600;6.524;2023-05-16T15:25:00;1020.5;;;19.4
79148;BMP280;68562;51.600;6.524;2023-05-16T15:30:00;1020.5;;;19.4
79148;BMP280;68562;51.600;6.524;2023-05-16T15:35:00;1020.6;;;19.4
79148;BMP280;68562;51.600;6.524;2023-05-16T15:40:00;1020.6;;;19.4
79148;BMP280;68562;51.600;6.524;2023-05-16T15:45:00;1020.7;;;19.5
79148;BMP280;68562;51.600;6.524;2023-05-16T15:50:00;1020.7;;;19.7
79148;BMP280;68562;51.600;6.524;2023-05-16T15:55:00;1020.6;;;19.9
79148;BMP280;68562;51.600;6.524;2023-05-16T16:00:00;1020.7;;;19.9
79148;BMP280;68562;51.600;6.524;2023-05-16T16:05:00;1020.7;;;20.0
79148;BMP280;68562;51.600;6.524;2023-05-16T16:10:00;1020.6;;;20.0
79148;BMP280;68562;51.600;6.524;2023-05-16T16:15:00;1020.6;;;19.9
79148;BMP280;68562;51.600;6.524;2023-05-16T16:20:00;1020.7;;;19.7
79148;BMP280;68562;51.600;6.524;2023-05-16T16:25:00;1020.7;;;19.6
79148;BMP280;68562;51.600;6.524;2023-05-16T16:30:00;1020.7;;;19.5
79148;BMP280;68562;51.600;6.524;2023-05-16T16:35:00;1020.8;;;19.5
79148;BMP280;68562;51.600;6.524;2023-05-16T16:40:00;1020.8;;;19.5
79148;BMP280;68562;51.600;6.524;2023-05-16T16:45:00;1020.8;;;19.4
79148;BMP280;68562;51.600;6.524;2023-05-16T16:50:00;1020.9;;;19.3
79148;BMP280;68562;51.600;6.524;2023-05-16T16:55:00;1020.9;;;19.2
79148;BMP280;68562;51.600;6.524;2023-05-16T17:00:00;1020.9;;;19.0
79148;BMP280;68562;51.600;6.524;2023-05-16T17:05:00;1020.9;;;18.8
79148;BMP280;68562;51.600;6.524;2023-05-16T17:10:00;1021.0;;;18.6
79148;BMP280;68562;51.600;6.524;2023-05-16T17:15:00;1021.1;;;18.5
79148;BMP280;68562;51.600;6.524;2023-05-16T17:20:00;1021.1;;;18.4
79148;BMP280;68562;51.600;6.524;2023-05-16T17:25:00;1021.2;;;18.3
79148;BMP280;68562;51.600;6.524;2023-05-16T17:30:00;1021.2;;;18.2
79148;BMP280;68562;51.600;6.524;2023-05-16T17:35:00;1021.1;;;18.2
79148;BMP280;68562;51.600;6.524;2023-05-16T17:40:00;1021.2;;;18.1
79148;BMP280;68562;51.600;6.524;2023-05-16T17:45:00;1021.2;;;18.0
79148;BMP280;68562;51.600;6.524;2023-05-16T17:50:00;1021.2;;;18.0
79148;BMP280;68562;51.600;6.524;2023-05-16T17:55:00;1021.2;;;17.9
79148;BMP280;68562;51.600;6.524;2023-05-16T18:00:00;1021.3;;;17.9
79148;BMP280;68562;51.600;6.524;2023-05-16T18:05:00;1021.2;;;17.9
79148;BMP280;68562;51.600;6.524;2023-05-16T18:10:00;1021.3;;;17.8
79148;BMP280;68562;51.600;6.524;2023-05-16T18:15:00;1021.3;;;17.8
79148;BMP280;68562;51.600;6.524;2023-05-16T18:20:00;1021.3;;;17.8
79148;BMP280;68562;51.600;6.524;2023-05-16T18:25:00;1021.4;;;17.7
79148;BMP280;68562;51.600;6.524;2023-05-16T18:30:01;1021.4;;;17.7
79148;BMP280;68562;51.600;6.524;2023-05-16T18:35:00;1021.4;;;17.7
79148;BMP280;68562;51.600;6.524;2023-05-16T18:40:00;1021.4;;;17.7
79148;BMP280;68562;51.600;6.524;2023-05-16T18:45:00;1021.4;;;17.7
79148;BMP280;68562;51.600;6.524;2023-05-16T18:50:00;1021.4;;;17.7
79148;BMP280;68562;51.600;6.524;2023-05-16T18:55:00;1021.5;;;17.7
79148;BMP280;68562;51.600;6.524;2023-05-16T19:00:00;1021.5;;;17.7
79148;BMP280;68562;51.600;6.524;2023-05-16T19:05:00;1021.5;;;17.7
79148;BMP280;68562;51.600;6.524;2023-05-16T19:10:00;1021.4;;;17.7
79148;BMP280;68562;51.600;6.524;2023-05-16T19:15:00;1021.5;;;17.6
79148;BMP280;68562;51.600;6.524;2023-05-16T19:20:00;1021.5;;;17.5
79148;BMP280;68562;51.600;6.524;2023-05-16T19:25:00;1021.7;;;17.5
79148;BMP280;68562;51.600;6.524;2023-05-16T19:30:00;1021.7;;;17.4
79148;BMP280;68562;51.600;6.524;2023-05-16T19:35:00;1021.7;;;17.3
79148;BMP280;68562;51.600;6.524;2023-05-16T19:40:00;1021.8;;;17.3
79148;BMP280;68562;51.600;6.524;2023-05-16T19:45:00;1021.8;;;17.3
79148;BMP280;68562;51.600;6.524;2023-05-16T19:50:01;1021.9;;;17.3
79148;BMP280;68562;51.600;6.524;2023-05-16T19:55:00;1021.9;;;17.2
79148;BMP280;68562;51.600;6.524;2023-05-16T20:00:00;1022.0;;;17.1
79148;BMP280;68562;51.600;6.524;2023-05-16T20:05:00;1022.1;;;16.9
79148;BMP280;68562;51.600;6.524;2023-05-16T20:10:00;1022.1;;;16.8
79148;BMP280;68562;51.600;6.524;2023-05-16T20:15:00;1022.1;;;16.6
79148;BMP280;68562;51.600;6.524;2023-05-16T20:20:00;1022.1;;;16.5
79148;BMP280;68562;51.600;6.524;2023-05-16T20:25:00;1022.1;;;16.4
79148;BMP280;68562;51.600;6.524;2023-05-16T20:30:01;1022.2;;;16.3
79148;BMP280;68562;51.600;6.524;2023-05-16T20:35:00;1022.2;;;16.2
79148;BMP280;68562;51.600;6.524;2023-05-16T20:40:00;1022.2;;;16.1
79148;BMP280;68562;51.600;6.524;2023-05-16T20:45:00;1022.2;;;16.0
79148;BMP280;68562;51.600;6.524;2023-05-16T20:50:00;1022.3;;;15.9
79148;BMP280;68562;51.600;6.524;2023-05-16T20:55:00;1022.3;;;15.8
79148;BMP280;68562;51.600;6.524;2023-05-16T21:00:00;1022.3;;;15.8
79148;BMP280;68562;51.600;6.524;2023-05-16T21:05:00;1022.3;;;15.6
79148;BMP280;68562;51.600;6.524;2023-05-16T21:10:00;1022.3;;;15.5
79148;BMP280;68562;51.600;6.524;2023-05-16T21:15:00;1022.4;;;15.3
79148;BMP280;68562;51.600;6.524;2023-05-16T21:20:00;1022.3;;;15.2
79148;BMP280;68562;51.600;6.524;2023-05-16T21:25:00;1022.3;;;15.0
79148;BMP280;68562;51.600;6.524;2023-05-16T21:30:00;1022.3;;;14.8
79148;BMP280;68562;51.600;6.524;2023-05-16T21:35:00;1022.4;;;14.7
79148;BMP280;68562;51.600;6.524;2023-05-16T21:40:00;1022.4;;;14.5
79148;BMP280;68562;51.600;6.524;2023-05-16T21:45:00;1022.4;;;14.5
79148;BMP280;68562;51.600;6.524;2023-05-16T21:50:00;1022.4;;;14.3
79148;BMP280;68562;51.600;6.524;2023-05-16T21:55:00;1022.5;;;14.2
79148;BMP280;68562;51.600;6.524;2023-05-16T22:00:00;1022.5;;;14.1
79148;BMP280;68562;51.600;6.524;2023-05-16T22:05:00;1022.6;;;14.0
79148;BMP280;68562;51.600;6.524;2023-05-16T22:10:01;1022.5;;;13.9
79148;BMP280;68562;51.600;6.524;2023-05-16T22:15:00;1022.5;;;13.8
79148;BMP280;68562;51.600;6.524;2023-05-16T22:20:00;1022.5;;;13.6
79148;BMP280;68562;51.600;6.524;2023-05-16T22:25:00;1022.6;;;13.6
79148;BMP280;68562;51.600;6.524;2023-05-16T22:30:00;1022.5;;;13.4
79148;BMP280;68562;51.600;6.524;2023-05-16T22:35:00;1022.5;;;13.4
79148;BMP280;68562;51.600;6.524;2023-05-16T22:40:00;1022.6;;;13.3
79148;BMP280;68562;51.600;6.524;2023-05-16T22:45:00;1022.6;;;13.2
79148;BMP280;68562;51.600;6.524;2023-05-16T22:50:00;1022.6;;;13.2
79148;BMP280;68562;51.600;6.524;2023-05-16T22:55:00;1022.6;;;13.1
79148;BMP280;68562;51.600;6.524;2023-05-16T23:00:00;1022.7;;;13.1
79148;BMP280;68562;51.600;6.524;2023-05-16T23:05:00;1022.7;;;13.0
79148;BMP280;68562;51.600;6.524;2023-05-16T23:10:00;1022.7;;;12.9
79148;BMP280;68562;51.600;6.524;2023-05-16T23:15:00;1022.7;;;12.9
79148;BMP280;68562;51.600;6.524;2023-05-16T23:20:00;1022.7;;;12.8
79148;BMP280;68562;51.600;6.524;2023-05-16T23:25:00;1022.7;;;12.8
79148;BMP280;68562;51.600;6.524;2023-05-16T23:30:00;1022.7;;;12.7
79148;BMP280;68562;51.600;6.524;2023-05-16T23:35:00;1022.7;;;12.7
79148;BMP280;68562;51.600;6.524;2023-05-16T23:40:00;1022.8;;;12.6
79148;BMP280;68562;51.600;6.524;2023-05-16T23:45:00;1022.8;;;12.6
79148;BMP280;68562;51.600;6.524;2023-05-16T23:50:00;1022.8;;;12.5
79148;BMP280;68562;51.600;6.524;2023-05-16T23:55:00;1022.8;;;12.5
